Time;durP1;ratioP1;P1;durP2;ratioP2;P2;SDS_P1;SDS_P2;PMS_P1;PMS_P2;Temp;Humidity;BMP_temperature;BMP_pressure;BME280_temperature;BME280_humidity;BME280_pressure;Samples;Min_cycle;Max_cycle;Signal;HPM_P1;HPM_P2
2021/12/07 00:01:19;;;;;;;1.77;1.20;;;;;;;;;;5040061;28;20021;-50
2021/12/07 00:03:46;;;;;;;2.40;1.45;;;;;;;;;;5039548;28;20021;-52
2021/12/07 00:06:12;;;;;;;1.80;1.08;;;;;;;;;;5043052;28;20017;-53
2021/12/07 00:08:40;;;;;;;1.40;1.15;;;;;;;;;;5039358;28;20103;-61
2021/12/07 00:11:06;;;;;;;1.88;1.30;;;;;;;;;;5041371;28;20465;-49
2021/12/07 00:13:36;;;;;;;1.50;0.90;;;;;;;;;;5040848;28;20377;-54
2021/12/07 00:16:03;;;;;;;2.22;1.20;;;;;;;;;;5041300;28;20048;-54
2021/12/07 00:18:29;;;;;;;1.77;1.33;;;;;;;;;;5042372;28;20025;-53
2021/12/07 00:20:55;;;;;;;1.33;1.10;;;;;;;;;;5031608;28;20088;-51
2021/12/07 00:23:21;;;;;;;1.20;1.10;;;;;;;;;;5031782;28;20033;-49
2021/12/07 00:25:47;;;;;;;2.13;1.30;;;;;;;;;;5031081;28;20034;-51
2021/12/07 00:28:14;;;;;;;1.92;1.17;;;;;;;;;;5031886;28;20374;-51
2021/12/07 00:30:42;;;;;;;7.00;1.02;;;;;;;;;;5030764;28;20025;-60
2021/12/07 00:35:53;;;;;;;1.58;1.00;;;;;;;;;;5031020;28;20030;-52
2021/12/07 00:38:21;;;;;;;1.38;0.95;;;;;;;;;;5032100;28;20033;-52
2021/12/07 00:40:48;;;;;;;3.05;1.58;;;;;;;;;;5031056;28;20038;-51
2021/12/07 00:43:15;;;;;;;1.80;1.08;;;;;;;;;;5030943;28;20041;-53
2021/12/07 00:45:45;;;;;;;1.60;0.90;;;;;;;;;;5031269;28;20092;-62
2021/12/07 00:48:11;;;;;;;1.40;1.00;;;;;;;;;;5031210;28;20036;-48
2021/12/07 00:50:39;;;;;;;1.60;0.90;;;;;;;;;;5031847;28;20036;-54
2021/12/07 00:53:05;;;;;;;1.63;1.15;;;;;;;;;;5030983;28;20072;-51
2021/12/07 00:55:33;;;;;;;1.90;1.10;;;;;;;;;;5031644;28;20026;-51
2021/12/07 00:58:00;;;;;;;1.35;0.90;;;;;;;;;;5032713;28;20041;-54
2021/12/07 01:00:28;;;;;;;1.15;0.90;;;;;;;;;;5052028;28;20100;-53
2021/12/07 01:02:54;;;;;;;1.10;0.90;;;;;;;;;;5051229;28;20485;-56
2021/12/07 01:05:29;;;;;;;1.75;0.93;;;;;;;;;;5041194;28;20072;-53
2021/12/07 01:24:44;;;;;;;1.08;0.90;;;;;;;;;;5017761;28;20059;-59
2021/12/07 01:27:12;;;;;;;1.00;0.80;;;;;;;;;;5035303;28;20467;-51
2021/12/07 01:29:40;;;;;;;1.80;0.85;;;;;;;;;;5034982;28;20435;-50
2021/12/07 02:00:42;;;;;;;1.10;0.80;;;;;;;;;;4973291;28;20023;-50
2021/12/07 02:03:08;;;;;;;1.65;1.00;;;;;;;;;;4972888;28;20039;-53
2021/12/07 02:05:34;;;;;;;0.82;0.63;;;;;;;;;;5002064;28;20491;-50
2021/12/07 02:08:00;;;;;;;0.50;0.50;;;;;;;;;;5033344;28;20383;-50
2021/12/07 02:10:29;;;;;;;1.35;0.82;;;;;;;;;;5034368;28;20022;-54
2021/12/07 02:13:02;;;;;;;0.95;0.60;;;;;;;;;;5032646;28;20107;-52
2021/12/07 02:15:29;;;;;;;1.02;0.80;;;;;;;;;;5033846;28;20060;-51
2021/12/07 02:17:55;;;;;;;0.77;0.63;;;;;;;;;;5033353;28;20083;-50
2021/12/07 02:20:22;;;;;;;1.67;1.08;;;;;;;;;;5034136;28;20022;-53
2021/12/07 02:22:48;;;;;;;1.40;0.82;;;;;;;;;;5033174;28;20044;-55
2021/12/07 02:25:15;;;;;;;1.10;0.90;;;;;;;;;;5033768;28;20026;-50
2021/12/07 02:27:41;;;;;;;0.70;0.68;;;;;;;;;;5033857;28;20033;-51
2021/12/07 02:30:09;;;;;;;1.10;0.77;;;;;;;;;;5032496;28;20132;-53
2021/12/07 02:32:35;;;;;;;0.80;0.70;;;;;;;;;;5033657;28;20500;-51
2021/12/07 02:35:02;;;;;;;0.77;0.68;;;;;;;;;;5040189;28;20028;-53
2021/12/07 02:37:29;;;;;;;0.77;0.60;;;;;;;;;;5053844;28;20021;-50
2021/12/07 02:39:56;;;;;;;0.80;0.57;;;;;;;;;;5052788;28;20029;-52
2021/12/07 02:42:23;;;;;;;0.70;0.50;;;;;;;;;;5053245;28;20385;-52
2021/12/07 02:44:49;;;;;;;0.80;0.60;;;;;;;;;;5052480;28;20024;-52
2021/12/07 02:47:15;;;;;;;0.90;0.63;;;;;;;;;;5053709;28;20068;-50
2021/12/07 02:49:41;;;;;;;1.10;0.90;;;;;;;;;;5053424;28;20025;-51
2021/12/07 02:52:08;;;;;;;0.93;0.70;;;;;;;;;;5052750;28;20037;-51
2021/12/07 02:54:36;;;;;;;0.32;0.32;;;;;;;;;;5053414;28;20036;-49
2021/12/07 02:57:02;;;;;;;0.40;0.40;;;;;;;;;;5052479;28;20029;-52
2021/12/07 02:59:29;;;;;;;1.33;0.50;;;;;;;;;;5039357;28;20021;-51
2021/12/07 03:02:02;;;;;;;1.52;1.13;;;;;;;;;;5032407;28;20112;-51
2021/12/07 03:04:35;;;;;;;0.43;0.40;;;;;;;;;;5033083;28;20083;-51
2021/12/07 03:07:13;;;;;;;0.63;0.50;;;;;;;;;;5032551;28;20370;-52
2021/12/07 03:26:06;;;;;;;1.08;0.77;;;;;;;;;;5052053;28;20159;-49
2021/12/07 03:28:37;;;;;;;0.90;0.50;;;;;;;;;;5052861;28;20071;-49
2021/12/07 03:31:04;;;;;;;0.55;0.40;;;;;;;;;;5051911;28;20104;-50
2021/12/07 03:33:30;;;;;;;0.50;0.40;;;;;;;;;;5052773;28;20044;-50
2021/12/07 03:35:56;;;;;;;0.50;0.50;;;;;;;;;;5051595;28;20461;-51
2021/12/07 03:38:22;;;;;;;1.05;0.60;;;;;;;;;;5052637;28;20104;-49
2021/12/07 03:40:48;;;;;;;0.45;0.40;;;;;;;;;;5051957;28;20083;-60
2021/12/07 03:43:15;;;;;;;0.63;0.43;;;;;;;;;;5051934;28;20039;-51
2021/12/07 03:45:41;;;;;;;1.17;0.50;;;;;;;;;;5052339;28;20049;-50
2021/12/07 03:48:09;;;;;;;0.50;0.43;;;;;;;;;;5051435;28;20086;-54
2021/12/07 03:50:35;;;;;;;0.93;0.50;;;;;;;;;;5052408;28;20028;-49
2021/12/07 03:53:01;;;;;;;0.60;0.60;;;;;;;;;;5051630;28;20028;-51
2021/12/07 03:55:28;;;;;;;0.60;0.50;;;;;;;;;;5052311;28;20044;-50
2021/12/07 03:57:54;;;;;;;1.05;0.52;;;;;;;;;;5051008;28;20124;-51
2021/12/07 04:00:22;;;;;;;1.35;0.50;;;;;;;;;;5032027;28;20021;-50
2021/12/07 04:02:50;;;;;;;0.45;0.45;;;;;;;;;;5031893;28;20033;-59
2021/12/07 04:05:18;;;;;;;0.57;0.50;;;;;;;;;;5041387;28;20021;-51
2021/12/07 04:07:44;;;;;;;0.70;0.55;;;;;;;;;;5052170;28;20025;-49
2021/12/07 04:10:13;;;;;;;0.60;0.57;;;;;;;;;;5049972;28;20107;-51
2021/12/07 04:12:39;;;;;;;0.70;0.50;;;;;;;;;;5052083;28;20025;-49
2021/12/07 04:15:06;;;;;;;0.73;0.47;;;;;;;;;;5051009;28;20024;-51
2021/12/07 04:17:32;;;;;;;0.63;0.50;;;;;;;;;;5051838;28;20052;-52
2021/12/07 04:19:58;;;;;;;0.60;0.60;;;;;;;;;;5051050;28;20104;-51
2021/12/07 04:22:25;;;;;;;0.70;0.57;;;;;;;;;;5051978;28;20026;-53
2021/12/07 04:24:51;;;;;;;0.88;0.43;;;;;;;;;;5048046;28;20024;-53
2021/12/07 04:27:17;;;;;;;0.70;0.40;;;;;;;;;;5032039;28;20037;-51
2021/12/07 04:29:43;;;;;;;0.82;0.38;;;;;;;;;;5031637;28;20410;-50
2021/12/07 04:32:10;;;;;;;0.70;0.60;;;;;;;;;;5031017;28;20022;-50
2021/12/07 04:34:36;;;;;;;0.30;0.30;;;;;;;;;;5038848;28;20021;-50
2021/12/07 04:37:02;;;;;;;0.80;0.50;;;;;;;;;;5045122;28;20025;-53
2021/12/07 04:39:28;;;;;;;0.45;0.30;;;;;;;;;;5042102;28;20490;-50
2021/12/07 04:41:55;;;;;;;1.55;0.60;;;;;;;;;;5038489;28;20383;-52
2021/12/07 04:44:22;;;;;;;0.70;0.50;;;;;;;;;;5040600;28;20021;-50
2021/12/07 04:57:44;;;;;;;0.30;0.25;;;;;;;;;;5035680;28;20033;-52
2021/12/07 05:00:16;;;;;;;0.30;0.20;;;;;;;;;;5054548;28;20025;-50
2021/12/07 05:02:45;;;;;;;0.32;0.30;;;;;;;;;;5055494;28;20039;-52
2021/12/07 05:05:13;;;;;;;0.40;0.40;;;;;;;;;;5054394;28;20025;-52
2021/12/07 05:07:46;;;;;;;0.43;0.38;;;;;;;;;;5055348;28;20108;-52
2021/12/07 05:10:24;;;;;;;0.47;0.47;;;;;;;;;;5055053;28;20070;-50
2021/12/07 05:15:59;;;;;;;0.43;0.30;;;;;;;;;;5055241;28;20555;-51
2021/12/07 05:39:51;;;;;;;0.60;0.40;;;;;;;;;;5054934;28;20035;-48
2021/12/07 05:42:17;;;;;;;0.50;0.25;;;;;;;;;;5054349;28;20025;-52
2021/12/07 05:44:43;;;;;;;1.67;0.85;;;;;;;;;;5043597;28;20017;-51
2021/12/07 05:47:09;;;;;;;0.50;0.30;;;;;;;;;;5046468;28;20037;-49
2021/12/07 05:49:36;;;;;;;0.60;0.30;;;;;;;;;;5048085;28;20108;-49
2021/12/07 05:52:02;;;;;;;0.68;0.47;;;;;;;;;;5046625;28;20032;-54
2021/12/07 05:54:28;;;;;;;0.55;0.40;;;;;;;;;;5037073;28;20385;-51
2021/12/07 05:56:54;;;;;;;0.40;0.40;;;;;;;;;;5041399;28;20021;-52
2021/12/07 05:59:20;;;;;;;0.90;0.55;;;;;;;;;;5041841;28;20485;-53
2021/12/07 06:01:47;;;;;;;0.90;0.43;;;;;;;;;;5044470;28;20024;-49
2021/12/07 06:04:13;;;;;;;0.77;0.45;;;;;;;;;;5051829;28;20627;-51
2021/12/07 06:06:39;;;;;;;1.42;0.50;;;;;;;;;;5034109;28;20097;-49
2021/12/07 06:09:06;;;;;;;0.40;0.40;;;;;;;;;;5033200;28;20029;-49
2021/12/07 06:11:32;;;;;;;0.95;0.30;;;;;;;;;;5034425;28;20021;-50
2021/12/07 06:13:59;;;;;;;0.63;0.40;;;;;;;;;;5033730;28;20025;-52
2021/12/07 06:16:29;;;;;;;0.90;0.45;;;;;;;;;;5033741;28;20034;-49
2021/12/07 06:18:56;;;;;;;1.23;0.50;;;;;;;;;;5033568;28;20481;-56
2021/12/07 06:21:22;;;;;;;1.48;0.50;;;;;;;;;;5034515;28;20053;-58
2021/12/07 06:23:48;;;;;;;2.58;0.52;;;;;;;;;;5033988;28;20483;-50
2021/12/07 06:26:14;;;;;;;8.25;0.95;;;;;;;;;;5033422;28;20191;-50
2021/12/07 06:28:40;;;;;;;6.18;0.90;;;;;;;;;;5033990;28;20050;-51
2021/12/07 06:31:06;;;;;;;0.80;0.50;;;;;;;;;;5032584;28;20021;-51
2021/12/07 06:33:32;;;;;;;2.33;0.47;;;;;;;;;;5030182;28;20390;-58
2021/12/07 06:36:00;;;;;;;1.05;0.40;;;;;;;;;;5033165;28;20025;-59
2021/12/07 06:38:31;;;;;;;3.92;0.50;;;;;;;;;;5033561;28;20382;-55
2021/12/07 06:40:57;;;;;;;7.47;0.73;;;;;;;;;;5032998;28;20036;-55
2021/12/07 06:43:24;;;;;;;2.33;0.50;;;;;;;;;;5033591;28;20123;-56
2021/12/07 06:45:50;;;;;;;3.33;0.73;;;;;;;;;;5033271;28;20486;-55
2021/12/07 06:48:17;;;;;;;2.40;0.50;;;;;;;;;;5032971;28;20470;-58
2021/12/07 06:50:43;;;;;;;4.45;1.35;;;;;;;;;;5033232;28;20029;-54
2021/12/07 06:53:09;;;;;;;1.95;0.80;;;;;;;;;;5032383;28;20040;-57
2021/12/07 06:55:36;;;;;;;6.32;1.58;;;;;;;;;;5033089;28;20035;-57
2021/12/07 06:58:03;;;;;;;2.90;0.88;;;;;;;;;;5031053;28;20025;-56
2021/12/07 07:00:29;;;;;;;4.13;1.33;;;;;;;;;;5037553;28;20037;-59
2021/12/07 07:02:56;;;;;;;7.05;1.30;;;;;;;;;;5043772;28;20037;-68
2021/12/07 07:05:23;;;;;;;2.80;1.10;;;;;;;;;;5053192;28;20032;-59
2021/12/07 07:07:49;;;;;;;4.70;1.25;;;;;;;;;;5053263;28;20116;-60
2021/12/07 07:10:16;;;;;;;4.97;1.13;;;;;;;;;;5052240;28;20105;-60
2021/12/07 07:12:45;;;;;;;3.75;1.30;;;;;;;;;;5053067;28;20179;-59
2021/12/07 07:15:11;;;;;;;6.70;1.35;;;;;;;;;;5052182;28;20047;-60
2021/12/07 07:17:38;;;;;;;4.28;1.27;;;;;;;;;;5052296;28;20116;-61
2021/12/07 07:20:05;;;;;;;7.35;1.45;;;;;;;;;;5052070;28;20112;-60
2021/12/07 07:22:31;;;;;;;2.47;1.00;;;;;;;;;;5052473;28;20041;-61
2021/12/07 07:24:57;;;;;;;10.20;1.35;;;;;;;;;;5051917;28;20086;-66
2021/12/07 07:27:24;;;;;;;2.05;1.08;;;;;;;;;;5052878;28;20036;-62
2021/12/07 07:29:50;;;;;;;2.15;1.00;;;;;;;;;;5052573;28;20098;-62
2021/12/07 07:32:16;;;;;;;6.70;1.27;;;;;;;;;;5051606;28;20055;-61
2021/12/07 07:34:42;;;;;;;2.20;0.80;;;;;;;;;;5051086;28;20462;-61
2021/12/07 07:37:08;;;;;;;1.88;0.82;;;;;;;;;;5051821;28;20028;-60
2021/12/07 07:39:34;;;;;;;4.18;1.00;;;;;;;;;;5049015;28;20025;-64
2021/12/07 07:42:00;;;;;;;2.25;1.23;;;;;;;;;;5031629;28;20037;-64
2021/12/07 07:44:26;;;;;;;4.28;1.00;;;;;;;;;;5032310;28;20356;-63
2021/12/07 07:46:52;;;;;;;5.40;1.50;;;;;;;;;;5032151;28;20054;-63
2021/12/07 07:49:18;;;;;;;2.58;1.05;;;;;;;;;;5031441;28;20076;-60
2021/12/07 07:51:44;;;;;;;8.68;2.25;;;;;;;;;;5032550;28;20363;-59
2021/12/07 07:54:11;;;;;;;3.88;1.05;;;;;;;;;;5031548;28;20049;-60
2021/12/07 07:56:37;;;;;;;4.30;1.27;;;;;;;;;;5032498;28;20033;-60
2021/12/07 07:59:04;;;;;;;3.22;1.23;;;;;;;;;;5031127;28;20033;-64
2021/12/07 08:01:31;;;;;;;6.18;1.48;;;;;;;;;;5032200;28;20539;-60
2021/12/07 08:04:00;;;;;;;2.90;1.02;;;;;;;;;;5031101;28;20033;-66
2021/12/07 08:06:26;;;;;;;4.07;1.30;;;;;;;;;;5032046;28;20028;-60
2021/12/07 08:08:52;;;;;;;4.35;1.17;;;;;;;;;;5032036;28;20030;-60
2021/12/07 08:11:19;;;;;;;1.63;1.10;;;;;;;;;;5031345;28;20083;-60
2021/12/07 08:13:45;;;;;;;3.42;0.88;;;;;;;;;;5032180;28;20119;-60
2021/12/07 08:16:15;;;;;;;3.90;1.08;;;;;;;;;;5030947;28;20025;-60
2021/12/07 08:18:45;;;;;;;5.18;1.45;;;;;;;;;;5032156;28;20026;-60
2021/12/07 08:21:12;;;;;;;2.95;0.80;;;;;;;;;;5030520;28;20382;-60
2021/12/07 08:23:38;;;;;;;1.05;0.70;;;;;;;;;;5031770;28;20437;-60
2021/12/07 08:26:05;;;;;;;2.42;0.90;;;;;;;;;;5030576;28;20035;-60
2021/12/07 08:28:31;;;;;;;3.08;0.90;;;;;;;;;;5031646;28;20031;-60
2021/12/07 08:30:59;;;;;;;2.53;0.95;;;;;;;;;;5031184;28;20039;-65
2021/12/07 08:33:25;;;;;;;3.08;0.93;;;;;;;;;;5051006;28;20025;-60
2021/12/07 08:35:51;;;;;;;2.40;1.02;;;;;;;;;;5051630;28;20021;-60
2021/12/07 08:38:17;;;;;;;2.35;1.10;;;;;;;;;;5051116;28;20060;-59
2021/12/07 08:40:45;;;;;;;3.05;0.90;;;;;;;;;;5048405;28;20025;-60
2021/12/07 08:43:12;;;;;;;2.13;0.90;;;;;;;;;;5034494;28;20136;-60
2021/12/07 08:45:40;;;;;;;2.42;0.77;;;;;;;;;;5031353;28;20045;-60
2021/12/07 08:48:06;;;;;;;3.75;0.80;;;;;;;;;;5030777;28;20034;-60
2021/12/07 08:50:33;;;;;;;2.50;1.10;;;;;;;;;;5031414;28;20475;-60
2021/12/07 08:53:02;;;;;;;1.50;0.82;;;;;;;;;;5031214;28;20041;-65
2021/12/07 09:01:00;;;;;;;2.70;0.93;;;;;;;;;;5031085;28;20095;-66
2021/12/07 09:03:28;;;;;;;1.77;0.80;;;;;;;;;;5029819;28;20496;-60
2021/12/07 09:05:54;;;;;;;1.02;0.68;;;;;;;;;;5031378;28;20014;-59
2021/12/07 09:08:21;;;;;;;3.55;0.63;;;;;;;;;;5030776;28;20133;-59
2021/12/07 09:10:47;;;;;;;1.75;0.50;;;;;;;;;;5029756;28;20065;-60
2021/12/07 09:13:13;;;;;;;2.08;0.60;;;;;;;;;;5030762;28;20068;-59
2021/12/07 09:15:40;;;;;;;1.77;1.00;;;;;;;;;;5031029;28;20095;-61
2021/12/07 09:18:06;;;;;;;2.30;0.85;;;;;;;;;;5030568;28;20379;-60
2021/12/07 09:20:32;;;;;;;1.23;0.60;;;;;;;;;;5031174;28;20078;-71
2021/12/07 09:23:04;;;;;;;4.90;1.77;;;;;;;;;;5031179;28;20041;-63
2021/12/07 09:25:31;;;;;;;2.42;1.10;;;;;;;;;;5031376;28;20052;-60
2021/12/07 09:27:59;;;;;;;2.88;0.70;;;;;;;;;;5031044;28;20487;-63
2021/12/07 09:30:25;;;;;;;2.80;0.80;;;;;;;;;;5030627;28;20021;-64
2021/12/07 09:32:51;;;;;;;1.48;0.60;;;;;;;;;;5031199;28;20482;-60
2021/12/07 09:35:18;;;;;;;5.72;0.90;;;;;;;;;;5030211;28;20146;-60
2021/12/07 09:37:44;;;;;;;3.88;1.23;;;;;;;;;;5030994;28;20524;-60
2021/12/07 09:40:13;;;;;;;2.90;0.80;;;;;;;;;;5031619;28;20025;-60
2021/12/07 09:42:39;;;;;;;2.35;0.75;;;;;;;;;;5034829;28;20048;-60
2021/12/07 09:45:06;;;;;;;1.35;0.63;;;;;;;;;;5033873;28;20053;-60
2021/12/07 09:47:32;;;;;;;2.45;0.80;;;;;;;;;;5035115;28;20037;-60
2021/12/07 09:50:06;;;;;;;1.52;0.82;;;;;;;;;;5034631;28;20062;-65
2021/12/07 09:52:32;;;;;;;3.13;0.70;;;;;;;;;;5034311;28;20059;-60
2021/12/07 09:55:04;;;;;;;2.33;0.98;;;;;;;;;;5034656;28;20021;-64
2021/12/07 09:57:30;;;;;;;1.10;0.63;;;;;;;;;;5034528;28;20018;-60
2021/12/07 09:59:56;;;;;;;1.52;0.60;;;;;;;;;;5052167;28;20071;-60
2021/12/07 10:02:22;;;;;;;1.00;0.70;;;;;;;;;;5034305;28;20032;-61
2021/12/07 10:04:48;;;;;;;1.27;0.73;;;;;;;;;;5034805;28;20033;-60
2021/12/07 10:07:15;;;;;;;7.78;1.42;;;;;;;;;;5033406;28;20030;-60
2021/12/07 10:09:42;;;;;;;3.30;0.60;;;;;;;;;;5034444;28;20021;-60
2021/12/07 10:12:08;;;;;;;1.90;0.80;;;;;;;;;;5032348;28;20120;-60
2021/12/07 10:14:42;;;;;;;1.05;0.60;;;;;;;;;;5034003;28;20021;-60
2021/12/07 10:17:08;;;;;;;1.88;0.70;;;;;;;;;;5033484;28;20030;-60
2021/12/07 10:19:36;;;;;;;1.73;0.60;;;;;;;;;;5034087;28;20079;-60
2021/12/07 10:22:05;;;;;;;1.50;0.50;;;;;;;;;;5032200;28;20040;-66
2021/12/07 10:24:37;;;;;;;2.65;0.93;;;;;;;;;;5034143;28;20036;-60
2021/12/07 10:27:05;;;;;;;4.43;0.80;;;;;;;;;;5033380;28;20459;-60
2021/12/07 10:29:31;;;;;;;2.92;1.13;;;;;;;;;;5033783;28;20501;-60
2021/12/07 10:32:02;;;;;;;1.10;0.70;;;;;;;;;;5033776;28;20040;-60
2021/12/07 10:34:34;;;;;;;2.28;1.08;;;;;;;;;;5033635;28;20028;-60
2021/12/07 10:37:06;;;;;;;2.38;0.82;;;;;;;;;;5033443;28;20112;-65
2021/12/07 10:39:32;;;;;;;;;;;;;;;;;;5034489;28;20021;-60
2021/12/07 10:42:00;;;;;;;4.25;0.82;;;;;;;;;;5032937;28;19912;-60
2021/12/07 10:44:27;;;;;;;4.55;0.95;;;;;;;;;;5033874;28;20091;-60
2021/12/07 10:46:56;;;;;;;2.35;0.73;;;;;;;;;;5033726;28;20132;-60
2021/12/07 10:49:30;;;;;;;1.67;0.57;;;;;;;;;;5032770;28;20017;-60
2021/12/07 10:51:59;;;;;;;1.42;0.60;;;;;;;;;;5032284;28;20022;-60
2021/12/07 10:54:25;;;;;;;1.73;0.90;;;;;;;;;;5032601;28;20025;-60
2021/12/07 10:56:51;;;;;;;2.40;0.98;;;;;;;;;;5033410;28;20087;-60
2021/12/07 10:59:18;;;;;;;1.63;0.60;;;;;;;;;;5032598;28;20030;-60
2021/12/07 11:01:46;;;;;;;1.42;0.68;;;;;;;;;;5032737;28;20018;-60
2021/12/07 11:04:22;;;;;;;2.20;1.02;;;;;;;;;;5032170;28;20056;-60
2021/12/07 11:07:06;;;;;;;3.15;0.85;;;;;;;;;;5033277;28;20462;-60
2021/12/07 11:09:57;;;;;;;1.88;0.70;;;;;;;;;;5032312;28;20528;-60
2021/12/07 11:12:24;;;;;;;2.42;0.80;;;;;;;;;;5032225;28;20033;-60
2021/12/07 11:14:53;;;;;;;1.65;1.27;;;;;;;;;;5032691;28;20480;-60
2021/12/07 11:17:23;;;;;;;2.42;1.17;;;;;;;;;;5032080;28;20030;-60
2021/12/07 11:19:50;;;;;;;2.05;0.90;;;;;;;;;;5032820;28;20104;-60
2021/12/07 11:22:20;;;;;;;1.58;0.80;;;;;;;;;;5032083;28;20055;-59
2021/12/07 11:24:47;;;;;;;1.73;0.68;;;;;;;;;;5032812;28;20036;-60
2021/12/07 11:30:01;;;;;;;1.67;0.90;;;;;;;;;;5032787;28;20544;-60
2021/12/07 11:32:28;;;;;;;1.85;0.70;;;;;;;;;;5031591;28;20674;-60
2021/12/07 11:34:54;;;;;;;4.88;0.90;;;;;;;;;;5032714;28;20048;-60
2021/12/07 11:37:22;;;;;;;1.40;0.80;;;;;;;;;;5035677;28;20041;-61
2021/12/07 11:39:53;;;;;;;2.08;0.60;;;;;;;;;;5032653;28;20017;-63
2021/12/07 11:42:21;;;;;;;2.90;0.55;;;;;;;;;;5031896;28;20095;-60
2021/12/07 11:44:52;;;;;;;2.75;0.70;;;;;;;;;;5032178;28;20045;-60
2021/12/07 11:47:26;;;;;;;1.50;0.80;;;;;;;;;;5032037;28;20029;-61
2021/12/07 11:49:52;;;;;;;1.85;0.65;;;;;;;;;;5032697;28;20021;-60
2021/12/07 11:52:19;;;;;;;1.55;0.90;;;;;;;;;;5031687;28;20030;-60
2021/12/07 11:54:46;;;;;;;1.38;0.60;;;;;;;;;;5032148;28;20022;-60
2021/12/07 11:57:14;;;;;;;1.33;0.80;;;;;;;;;;5031562;28;20033;-61
2021/12/07 11:59:41;;;;;;;1.70;0.80;;;;;;;;;;5047716;28;20029;-60
2021/12/07 12:02:11;;;;;;;1.70;0.80;;;;;;;;;;5034423;28;20411;-66
2021/12/07 12:04:39;;;;;;;2.97;1.23;;;;;;;;;;5032129;28;20021;-62
2021/12/07 12:07:08;;;;;;;1.42;0.57;;;;;;;;;;5032243;28;20436;-61
2021/12/07 12:09:35;;;;;;;1.55;0.50;;;;;;;;;;5031148;28;20021;-62
2021/12/07 12:12:01;;;;;;;2.28;0.63;;;;;;;;;;5032083;28;20022;-61
2021/12/07 12:14:34;;;;;;;3.28;1.02;;;;;;;;;;5030846;28;20090;-61
2021/12/07 12:17:09;;;;;;;1.58;0.70;;;;;;;;;;5031986;28;20515;-61
2021/12/07 12:19:41;;;;;;;1.52;0.55;;;;;;;;;;5031435;28;20025;-60
2021/12/07 12:22:13;;;;;;;1.70;0.50;;;;;;;;;;5031976;28;20034;-61
2021/12/07 12:24:45;;;;;;;1.92;0.85;;;;;;;;;;5031821;28;20064;-60
2021/12/07 12:27:14;;;;;;;1.77;0.77;;;;;;;;;;5030966;28;20546;-67
2021/12/07 12:29:41;;;;;;;2.13;0.60;;;;;;;;;;5031396;28;20497;-60
2021/12/07 12:32:08;;;;;;;2.92;0.80;;;;;;;;;;5031525;28;20086;-60
2021/12/07 12:34:39;;;;;;;2.53;1.17;;;;;;;;;;5030967;28;20032;-61
2021/12/07 12:37:09;;;;;;;1.70;0.88;;;;;;;;;;5032275;28;20034;-60
2021/12/07 12:39:41;;;;;;;1.80;0.80;;;;;;;;;;5031072;28;20030;-61
2021/12/07 12:42:08;;;;;;;1.50;0.40;;;;;;;;;;5030792;28;20493;-61
2021/12/07 12:44:35;;;;;;;1.52;0.43;;;;;;;;;;5030932;28;20025;-60
2021/12/07 12:47:01;;;;;;;2.00;0.60;;;;;;;;;;5031186;28;20041;-60
2021/12/07 12:49:40;;;;;;;3.10;0.95;;;;;;;;;;5030906;28;20018;-60
2021/12/07 12:52:07;;;;;;;1.77;0.63;;;;;;;;;;5031621;28;20475;-60
2021/12/07 12:54:41;;;;;;;1.38;0.68;;;;;;;;;;5030742;28;20041;-60
2021/12/07 12:57:17;;;;;;;1.83;0.77;;;;;;;;;;5031561;28;20025;-60
2021/12/07 12:59:45;;;;;;;2.47;0.85;;;;;;;;;;5031320;28;20099;-61
2021/12/07 13:02:14;;;;;;;1.95;0.75;;;;;;;;;;5030842;28;20478;-66
2021/12/07 13:04:40;;;;;;;1.33;0.68;;;;;;;;;;5031557;28;20021;-60
2021/12/07 13:07:33;;;;;;;1.40;0.75;;;;;;;;;;5031611;28;20029;-60
2021/12/07 13:10:01;;;;;;;1.48;0.60;;;;;;;;;;5029653;28;20069;-60
2021/12/07 13:12:32;;;;;;;1.73;0.80;;;;;;;;;;5030640;28;20065;-60
2021/12/07 13:15:00;;;;;;;1.77;0.77;;;;;;;;;;5032388;28;20045;-60
2021/12/07 13:17:32;;;;;;;1.38;0.63;;;;;;;;;;5034523;28;20025;-60
2021/12/07 13:20:17;;;;;;;0.95;0.50;;;;;;;;;;5030402;28;20087;-61
2021/12/07 13:22:50;;;;;;;1.50;0.57;;;;;;;;;;5055760;28;20052;-60
2021/12/07 13:25:25;;;;;;;2.17;0.60;;;;;;;;;;5055350;28;20078;-60
2021/12/07 13:28:17;;;;;;;4.25;0.68;;;;;;;;;;5054619;28;20355;-60
2021/12/07 13:30:50;;;;;;;5.13;1.02;;;;;;;;;;5052649;28;20533;-60
2021/12/07 13:33:35;;;;;;;3.30;0.57;;;;;;;;;;5054230;28;20025;-61
2021/12/07 13:36:01;;;;;;;2.15;0.80;;;;;;;;;;5054631;28;20115;-60
2021/12/07 13:38:29;;;;;;;2.70;0.70;;;;;;;;;;5053894;28;20024;-62
2021/12/07 13:41:14;;;;;;;1.42;0.50;;;;;;;;;;5054540;28;20039;-61
2021/12/07 13:43:41;;;;;;;0.68;0.52;;;;;;;;;;5054334;28;20465;-62
2021/12/07 13:46:17;;;;;;;1.00;0.60;;;;;;;;;;5054529;28;20367;-60
2021/12/07 13:48:45;;;;;;;1.33;0.88;;;;;;;;;;5054772;28;20104;-61
2021/12/07 13:51:19;;;;;;;3.05;0.90;;;;;;;;;;5054247;28;20465;-67
2021/12/07 13:53:45;;;;;;;3.35;0.93;;;;;;;;;;5054415;28;20113;-62
2021/12/07 13:56:18;;;;;;;1.45;0.60;;;;;;;;;;5054195;28;20025;-66
2021/12/07 13:58:53;;;;;;;1.23;0.68;;;;;;;;;;5046353;28;20030;-60
2021/12/07 14:01:19;;;;;;;3.42;0.70;;;;;;;;;;5043503;28;20025;-61
2021/12/07 14:03:46;;;;;;;0.63;0.52;;;;;;;;;;5054257;28;20029;-61
2021/12/07 14:06:14;;;;;;;0.82;0.60;;;;;;;;;;5053616;28;20021;-67
2021/12/07 14:08:40;;;;;;;1.15;0.50;;;;;;;;;;5054487;28;20108;-61
2021/12/07 14:11:06;;;;;;;1.45;0.60;;;;;;;;;;5054201;28;20136;-60
2021/12/07 14:13:32;;;;;;;1.42;0.60;;;;;;;;;;5053242;28;20591;-61
2021/12/07 14:15:58;;;;;;;1.75;0.55;;;;;;;;;;5054166;28;20036;-61
2021/12/07 14:18:27;;;;;;;2.33;0.95;;;;;;;;;;5052885;28;20108;-60
2021/12/07 14:20:55;;;;;;;1.52;0.82;;;;;;;;;;5053927;28;20018;-60
2021/12/07 14:23:21;;;;;;;2.15;0.88;;;;;;;;;;5052919;28;20032;-61
2021/12/07 14:25:59;;;;;;;2.83;0.85;;;;;;;;;;5053741;28;20036;-61
2021/12/07 14:28:25;;;;;;;1.77;0.68;;;;;;;;;;5053019;28;20071;-62
2021/12/07 14:30:51;;;;;;;1.05;0.60;;;;;;;;;;5053554;28;20021;-60
2021/12/07 14:33:18;;;;;;;1.00;0.63;;;;;;;;;;5052806;28;20158;-60
2021/12/07 14:35:44;;;;;;;1.67;0.70;;;;;;;;;;5053777;28;20104;-62
2021/12/07 14:38:10;;;;;;;3.35;0.50;;;;;;;;;;5054078;28;20031;-60
2021/12/07 14:40:36;;;;;;;1.35;0.80;;;;;;;;;;5052903;28;20029;-61
2021/12/07 14:43:02;;;;;;;1.45;0.63;;;;;;;;;;5053368;28;20108;-60
2021/12/07 14:45:28;;;;;;;0.85;0.60;;;;;;;;;;5052195;28;20064;-60
2021/12/07 14:47:58;;;;;;;1.48;0.50;;;;;;;;;;5053504;28;20320;-61
2021/12/07 14:50:24;;;;;;;1.80;0.68;;;;;;;;;;5052722;28;20028;-60
2021/12/07 14:52:50;;;;;;;3.13;0.90;;;;;;;;;;5053517;28;20370;-60
2021/12/07 14:55:17;;;;;;;1.40;0.70;;;;;;;;;;5052370;28;20104;-67
2021/12/07 14:57:44;;;;;;;1.80;0.50;;;;;;;;;;5053312;28;20036;-62
2021/12/07 15:00:10;;;;;;;1.73;0.90;;;;;;;;;;5034021;28;20490;-61
2021/12/07 15:02:37;;;;;;;1.58;0.60;;;;;;;;;;5051958;28;20115;-60
2021/12/07 15:05:08;;;;;;;3.47;0.75;;;;;;;;;;5053143;28;20021;-61
2021/12/07 15:07:36;;;;;;;3.15;0.90;;;;;;;;;;5051466;28;20579;-59
2021/12/07 15:10:09;;;;;;;2.53;1.15;;;;;;;;;;5053031;28;20064;-60
2021/12/07 15:12:41;;;;;;;1.75;0.70;;;;;;;;;;5052280;28;20028;-60
2021/12/07 15:15:08;;;;;;;1.80;1.20;;;;;;;;;;5052945;28;20040;-60
2021/12/07 15:17:34;;;;;;;4.68;1.00;;;;;;;;;;5052116;28;20041;-60
2021/12/07 15:20:01;;;;;;;1.15;0.80;;;;;;;;;;5052839;28;20083;-61
2021/12/07 15:22:27;;;;;;;2.38;0.70;;;;;;;;;;5051777;28;20040;-60
2021/12/07 15:24:55;;;;;;;0.98;0.50;;;;;;;;;;5053111;28;20021;-59
2021/12/07 15:27:22;;;;;;;2.75;0.75;;;;;;;;;;5051766;28;20021;-60
2021/12/07 15:29:52;;;;;;;1.67;0.73;;;;;;;;;;5052574;28;20028;-60
2021/12/07 15:32:20;;;;;;;1.42;0.82;;;;;;;;;;5051526;28;20029;-60
2021/12/07 15:34:47;;;;;;;3.08;0.60;;;;;;;;;;5052236;28;20025;-59
2021/12/07 15:37:19;;;;;;;2.45;1.02;;;;;;;;;;5052177;28;20036;-60
2021/12/07 15:39:45;;;;;;;;;;;;;;;;;;5052911;28;20029;-60
2021/12/07 15:42:13;;;;;;;2.70;0.73;;;;;;;;;;5052171;28;20446;-59
2021/12/07 15:44:53;;;;;;;2.00;0.70;;;;;;;;;;5051271;28;20040;-60
2021/12/07 15:47:20;;;;;;;1.83;1.08;;;;;;;;;;5051564;28;20029;-61
2021/12/07 15:49:53;;;;;;;2.95;0.93;;;;;;;;;;5052583;28;20168;-60
2021/12/07 15:52:21;;;;;;;1.33;0.80;;;;;;;;;;5051492;28;20115;-60
2021/12/07 15:54:57;;;;;;;1.60;0.70;;;;;;;;;;5052092;28;20027;-59
2021/12/07 15:57:24;;;;;;;2.03;0.82;;;;;;;;;;5051177;28;20408;-59
2021/12/07 15:59:58;;;;;;;2.00;0.77;;;;;;;;;;5034814;28;20033;-59
2021/12/07 16:02:25;;;;;;;2.28;1.30;;;;;;;;;;5050231;28;20040;-60
2021/12/07 16:04:51;;;;;;;1.25;0.75;;;;;;;;;;5052247;28;20100;-59
2021/12/07 16:07:23;;;;;;;2.13;0.95;;;;;;;;;;5051565;28;20028;-66
2021/12/07 16:10:28;;;;;;;1.33;0.70;;;;;;;;;;5052123;28;20619;-60
2021/12/07 16:13:01;;;;;;;1.98;0.90;;;;;;;;;;5010069;28;20087;-60
2021/12/07 16:15:27;;;;;;;1.65;0.70;;;;;;;;;;5009023;28;20038;-59
2021/12/07 16:17:56;;;;;;;1.45;0.70;;;;;;;;;;5009774;28;20045;-60
2021/12/07 16:20:22;;;;;;;1.63;1.02;;;;;;;;;;5009156;28;20104;-60
2021/12/07 16:22:48;;;;;;;4.22;1.27;;;;;;;;;;5009850;28;20042;-60
2021/12/07 16:25:14;;;;;;;1.58;1.08;;;;;;;;;;5009940;28;20042;-61
2021/12/07 16:27:40;;;;;;;1.15;0.77;;;;;;;;;;5009096;28;20026;-61
2021/12/07 16:30:08;;;;;;;1.25;0.80;;;;;;;;;;5009349;28;20030;-60
2021/12/07 16:32:34;;;;;;;1.35;0.70;;;;;;;;;;5008811;28;20125;-60
2021/12/07 16:35:00;;;;;;;1.80;0.82;;;;;;;;;;5009559;28;20024;-60
2021/12/07 16:37:27;;;;;;;2.10;0.80;;;;;;;;;;5008684;28;20038;-60